sensor_id;sensor_type;location;lat;lon;timestamp;temperature;humidity
35559;DHT22;21661;50.794;-1.066;2023-07-02T00:01:43;17.10;99.90
35559;DHT22;21661;50.794;-1.066;2023-07-02T00:04:09;17.10;99.90
35559;DHT22;21661;50.794;-1.066;2023-07-02T00:06:35;17.10;99.90
35559;DHT22;21661;50.794;-1.066;2023-07-02T00:09:06;17.00;99.90
35559;DHT22;21661;50.794;-1.066;2023-07-02T00:11:32;17.00;99.90
35559;DHT22;21661;50.794;-1.066;2023-07-02T00:13:58;16.90;99.90
35559;DHT22;21661;50.794;-1.066;2023-07-02T00:16:23;16.90;99.90
35559;DHT22;21661;50.794;-1.066;2023-07-02T00:18:49;16.90;99.90
35559;DHT22;21661;50.794;-1.066;2023-07-02T00:21:18;16.80;99.90
35559;DHT22;21661;50.794;-1.066;2023-07-02T00:23:44;16.80;99.90
35559;DHT22;21661;50.794;-1.066;2023-07-02T00:26:10;16.80;99.90
35559;DHT22;21661;50.794;-1.066;2023-07-02T00:28:35;16.80;99.90
35559;DHT22;21661;50.794;-1.066;2023-07-02T00:31:01;16.80;99.90
35559;DHT22;21661;50.794;-1.066;2023-07-02T00:33:27;16.80;99.90
35559;DHT22;21661;50.794;-1.066;2023-07-02T00:35:54;16.70;99.90
35559;DHT22;21661;50.794;-1.066;2023-07-02T00:38:20;16.70;99.90
35559;DHT22;21661;50.794;-1.066;2023-07-02T00:40:45;16.70;99.90
35559;DHT22;21661;50.794;-1.066;2023-07-02T00:43:11;16.80;99.90
35559;DHT22;21661;50.794;-1.066;2023-07-02T00:45:39;16.70;99.90
35559;DHT22;21661;50.794;-1.066;2023-07-02T00:48:05;16.70;99.90
35559;DHT22;21661;50.794;-1.066;2023-07-02T00:50:31;16.70;99.90
35559;DHT22;21661;50.794;-1.066;2023-07-02T00:52:57;16.60;99.90
35559;DHT22;21661;50.794;-1.066;2023-07-02T00:55:23;16.70;99.90
35559;DHT22;21661;50.794;-1.066;2023-07-02T00:57:49;16.60;99.90
35559;DHT22;21661;50.794;-1.066;2023-07-02T01:00:15;16.60;99.90
35559;DHT22;21661;50.794;-1.066;2023-07-02T01:02:41;16.50;99.90
35559;DHT22;21661;50.794;-1.066;2023-07-02T01:05:13;16.40;99.90
35559;DHT22;21661;50.794;-1.066;2023-07-02T01:07:39;16.40;99.90
35559;DHT22;21661;50.794;-1.066;2023-07-02T01:10:05;16.30;99.90
35559;DHT22;21661;50.794;-1.066;2023-07-02T01:12:31;16.30;99.90
35559;DHT22;21661;50.794;-1.066;2023-07-02T01:15:00;16.30;99.90
35559;DHT22;21661;50.794;-1.066;2023-07-02T01:17:29;16.20;99.90
35559;DHT22;21661;50.794;-1.066;2023-07-02T01:20:03;16.20;99.90
35559;DHT22;21661;50.794;-1.066;2023-07-02T01:22:30;16.20;99.90
35559;DHT22;21661;50.794;-1.066;2023-07-02T01:24:57;16.20;99.90
35559;DHT22;21661;50.794;-1.066;2023-07-02T01:27:22;16.20;99.90
35559;DHT22;21661;50.794;-1.066;2023-07-02T01:29:52;16.10;99.90
35559;DHT22;21661;50.794;-1.066;2023-07-02T01:32:17;16.10;99.90
35559;DHT22;21661;50.794;-1.066;2023-07-02T01:34:43;16.00;99.90
35559;DHT22;21661;50.794;-1.066;2023-07-02T01:37:15;16.00;99.90
35559;DHT22;21661;50.794;-1.066;2023-07-02T01:39:40;16.00;99.90
35559;DHT22;21661;50.794;-1.066;2023-07-02T01:42:17;15.90;99.90
35559;DHT22;21661;50.794;-1.066;2023-07-02T01:44:43;15.90;99.90
35559;DHT22;21661;50.794;-1.066;2023-07-02T01:47:09;15.80;99.90
35559;DHT22;21661;50.794;-1.066;2023-07-02T01:49:35;15.80;99.90
35559;DHT22;21661;50.794;-1.066;2023-07-02T01:52:05;15.80;99.90
35559;DHT22;21661;50.794;-1.066;2023-07-02T01:54:32;15.70;99.90
35559;DHT22;21661;50.794;-1.066;2023-07-02T01:56:58;15.70;99.90
35559;DHT22;21661;50.794;-1.066;2023-07-02T01:59:24;15.70;99.90
35559;DHT22;21661;50.794;-1.066;2023-07-02T02:01:49;15.70;99.90
35559;DHT22;21661;50.794;-1.066;2023-07-02T02:04:15;15.70;99.90
35559;DHT22;21661;50.794;-1.066;2023-07-02T02:06:41;15.60;99.90
35559;DHT22;21661;50.794;-1.066;2023-07-02T02:09:07;15.60;99.90
35559;DHT22;21661;50.794;-1.066;2023-07-02T02:11:36;15.60;99.90
35559;DHT22;21661;50.794;-1.066;2023-07-02T02:14:02;15.60;99.90
35559;DHT22;21661;50.794;-1.066;2023-07-02T02:16:27;15.50;99.90
35559;DHT22;21661;50.794;-1.066;2023-07-02T02:18:53;15.50;99.90
35559;DHT22;21661;50.794;-1.066;2023-07-02T02:21:20;15.50;99.90
35559;DHT22;21661;50.794;-1.066;2023-07-02T02:23:46;15.40;99.90
35559;DHT22;21661;50.794;-1.066;2023-07-02T02:26:11;15.40;99.90
35559;DHT22;21661;50.794;-1.066;2023-07-02T02:28:37;15.50;99.90
35559;DHT22;21661;50.794;-1.066;2023-07-02T02:31:03;15.40;99.90
35559;DHT22;21661;50.794;-1.066;2023-07-02T02:33:29;15.40;99.90
35559;DHT22;21661;50.794;-1.066;2023-07-02T02:35:55;15.40;99.90
35559;DHT22;21661;50.794;-1.066;2023-07-02T02:38:21;15.40;99.90
35559;DHT22;21661;50.794;-1.066;2023-07-02T02:40:47;15.40;99.90
35559;DHT22;21661;50.794;-1.066;2023-07-02T02:43:12;15.30;99.90
35559;DHT22;21661;50.794;-1.066;2023-07-02T02:45:38;15.30;99.90
35559;DHT22;21661;50.794;-1.066;2023-07-02T02:48:04;15.30;99.90
35559;DHT22;21661;50.794;-1.066;2023-07-02T02:50:30;15.30;99.90
35559;DHT22;21661;50.794;-1.066;2023-07-02T02:52:55;15.20;99.90
35559;DHT22;21661;50.794;-1.066;2023-07-02T02:55:21;15.10;99.90
35559;DHT22;21661;50.794;-1.066;2023-07-02T02:57:46;15.10;99.90
35559;DHT22;21661;50.794;-1.066;2023-07-02T03:00:12;15.10;99.90
35559;DHT22;21661;50.794;-1.066;2023-07-02T03:02:38;15.10;99.90
35559;DHT22;21661;50.794;-1.066;2023-07-02T03:05:05;15.10;99.90
35559;DHT22;21661;50.794;-1.066;2023-07-02T03:07:32;15.10;99.90
35559;DHT22;21661;50.794;-1.066;2023-07-02T03:09:58;15.10;99.90
35559;DHT22;21661;50.794;-1.066;2023-07-02T03:12:25;15.10;99.90
35559;DHT22;21661;50.794;-1.066;2023-07-02T03:14:51;15.10;99.90
35559;DHT22;21661;50.794;-1.066;2023-07-02T03:17:20;15.10;99.90
35559;DHT22;21661;50.794;-1.066;2023-07-02T03:19:45;15.00;99.90
35559;DHT22;21661;50.794;-1.066;2023-07-02T03:22:12;15.00;99.90
35559;DHT22;21661;50.794;-1.066;2023-07-02T03:24:37;15.00;99.90
35559;DHT22;21661;50.794;-1.066;2023-07-02T03:27:03;15.00;99.90
35559;DHT22;21661;50.794;-1.066;2023-07-02T03:29:29;15.00;99.90
35559;DHT22;21661;50.794;-1.066;2023-07-02T03:31:55;14.90;99.90
35559;DHT22;21661;50.794;-1.066;2023-07-02T03:34:20;14.90;99.90
35559;DHT22;21661;50.794;-1.066;2023-07-02T03:36:47;14.90;99.90
35559;DHT22;21661;50.794;-1.066;2023-07-02T03:39:13;14.90;99.90
35559;DHT22;21661;50.794;-1.066;2023-07-02T03:41:39;14.80;99.90
35559;DHT22;21661;50.794;-1.066;2023-07-02T03:44:04;14.80;99.90
35559;DHT22;21661;50.794;-1.066;2023-07-02T03:46:30;14.80;99.90
35559;DHT22;21661;50.794;-1.066;2023-07-02T03:48:56;14.70;99.90
35559;DHT22;21661;50.794;-1.066;2023-07-02T03:51:22;14.80;99.90
35559;DHT22;21661;50.794;-1.066;2023-07-02T03:53:48;14.80;99.90
35559;DHT22;21661;50.794;-1.066;2023-07-02T03:56:13;14.80;99.90
35559;DHT22;21661;50.794;-1.066;2023-07-02T03:58:42;14.80;99.90
35559;DHT22;21661;50.794;-1.066;2023-07-02T04:01:08;14.80;99.90
35559;DHT22;21661;50.794;-1.066;2023-07-02T04:03:34;14.80;99.90
35559;DHT22;21661;50.794;-1.066;2023-07-02T04:05:59;14.80;99.90
35559;DHT22;21661;50.794;-1.066;2023-07-02T04:08:25;14.80;99.90
35559;DHT22;21661;50.794;-1.066;2023-07-02T04:10:54;14.70;99.90
35559;DHT22;21661;50.794;-1.066;2023-07-02T04:13:20;14.70;99.90
35559;DHT22;21661;50.794;-1.066;2023-07-02T04:15:45;14.80;99.90
35559;DHT22;21661;50.794;-1.066;2023-07-02T04:18:11;14.70;99.90
35559;DHT22;21661;50.794;-1.066;2023-07-02T04:20:37;14.70;99.90
35559;DHT22;21661;50.794;-1.066;2023-07-02T04:23:08;14.70;99.90
35559;DHT22;21661;50.794;-1.066;2023-07-02T04:25:34;14.70;99.90
35559;DHT22;21661;50.794;-1.066;2023-07-02T04:27:59;14.70;99.90
35559;DHT22;21661;50.794;-1.066;2023-07-02T04:30:25;14.70;99.90
35559;DHT22;21661;50.794;-1.066;2023-07-02T04:32:51;14.70;99.90
35559;DHT22;21661;50.794;-1.066;2023-07-02T04:35:17;14.70;99.90
35559;DHT22;21661;50.794;-1.066;2023-07-02T04:37:43;14.70;99.90
35559;DHT22;21661;50.794;-1.066;2023-07-02T04:40:09;14.70;99.90
35559;DHT22;21661;50.794;-1.066;2023-07-02T04:42:41;14.70;99.90
35559;DHT22;21661;50.794;-1.066;2023-07-02T04:45:12;14.80;99.90
35559;DHT22;21661;50.794;-1.066;2023-07-02T04:47:41;14.80;99.90
35559;DHT22;21661;50.794;-1.066;2023-07-02T04:50:07;14.90;99.90
35559;DHT22;21661;50.794;-1.066;2023-07-02T04:52:32;14.90;99.90
35559;DHT22;21661;50.794;-1.066;2023-07-02T04:54:58;14.90;99.90
35559;DHT22;21661;50.794;-1.066;2023-07-02T04:57:24;14.80;99.90
35559;DHT22;21661;50.794;-1.066;2023-07-02T04:59:49;14.90;99.90
35559;DHT22;21661;50.794;-1.066;2023-07-02T05:02:15;14.90;99.90
35559;DHT22;21661;50.794;-1.066;2023-07-02T05:04:40;14.90;99.90
35559;DHT22;21661;50.794;-1.066;2023-07-02T05:07:06;14.90;99.90
35559;DHT22;21661;50.794;-1.066;2023-07-02T05:09:31;14.90;99.90
35559;DHT22;21661;50.794;-1.066;2023-07-02T05:11:57;15.00;99.90
35559;DHT22;21661;50.794;-1.066;2023-07-02T05:14:23;15.10;99.90
35559;DHT22;21661;50.794;-1.066;2023-07-02T05:16:49;15.10;99.90
35559;DHT22;21661;50.794;-1.066;2023-07-02T05:19:15;15.20;99.90
35559;DHT22;21661;50.794;-1.066;2023-07-02T05:21:41;15.20;99.90
35559;DHT22;21661;50.794;-1.066;2023-07-02T05:24:08;15.20;99.90
35559;DHT22;21661;50.794;-1.066;2023-07-02T05:26:34;15.30;99.90
35559;DHT22;21661;50.794;-1.066;2023-07-02T05:29:01;15.30;99.90
35559;DHT22;21661;50.794;-1.066;2023-07-02T05:31:26;15.30;99.90
35559;DHT22;21661;50.794;-1.066;2023-07-02T05:33:53;15.40;99.90
35559;DHT22;21661;50.794;-1.066;2023-07-02T05:36:19;15.40;99.90
35559;DHT22;21661;50.794;-1.066;2023-07-02T05:38:45;15.50;99.90
35559;DHT22;21661;50.794;-1.066;2023-07-02T05:41:10;15.50;99.90
35559;DHT22;21661;50.794;-1.066;2023-07-02T05:43:36;15.50;99.90
35559;DHT22;21661;50.794;-1.066;2023-07-02T05:46:01;15.40;99.90
35559;DHT22;21661;50.794;-1.066;2023-07-02T05:48:27;15.50;99.90
35559;DHT22;21661;50.794;-1.066;2023-07-02T05:50:53;15.50;99.90
35559;DHT22;21661;50.794;-1.066;2023-07-02T05:53:20;15.50;99.90
35559;DHT22;21661;50.794;-1.066;2023-07-02T05:55:45;15.50;99.90
35559;DHT22;21661;50.794;-1.066;2023-07-02T05:58:11;15.60;99.90
35559;DHT22;21661;50.794;-1.066;2023-07-02T06:00:36;15.60;99.90
35559;DHT22;21661;50.794;-1.066;2023-07-02T06:03:02;15.70;99.90
35559;DHT22;21661;50.794;-1.066;2023-07-02T06:05:28;15.70;99.90
35559;DHT22;21661;50.794;-1.066;2023-07-02T06:07:54;15.80;99.90
35559;DHT22;21661;50.794;-1.066;2023-07-02T06:10:19;15.80;99.90
35559;DHT22;21661;50.794;-1.066;2023-07-02T06:12:45;15.80;99.90
35559;DHT22;21661;50.794;-1.066;2023-07-02T06:15:10;15.80;99.90
35559;DHT22;21661;50.794;-1.066;2023-07-02T06:17:36;15.90;99.90
35559;DHT22;21661;50.794;-1.066;2023-07-02T06:20:05;15.90;99.90
35559;DHT22;21661;50.794;-1.066;2023-07-02T06:22:31;15.90;99.90
35559;DHT22;21661;50.794;-1.066;2023-07-02T06:24:57;16.00;99.90
35559;DHT22;21661;50.794;-1.066;2023-07-02T06:27:22;16.00;99.90
35559;DHT22;21661;50.794;-1.066;2023-07-02T06:29:48;15.90;99.90
35559;DHT22;21661;50.794;-1.066;2023-07-02T06:32:15;16.00;99.90
35559;DHT22;21661;50.794;-1.066;2023-07-02T06:34:40;16.10;99.90
35559;DHT22;21661;50.794;-1.066;2023-07-02T06:37:06;16.10;99.90
35559;DHT22;21661;50.794;-1.066;2023-07-02T06:39:31;16.20;99.90
35559;DHT22;21661;50.794;-1.066;2023-07-02T06:41:57;16.20;99.90
35559;DHT22;21661;50.794;-1.066;2023-07-02T06:44:22;16.30;99.90
35559;DHT22;21661;50.794;-1.066;2023-07-02T06:46:48;16.40;99.90
35559;DHT22;21661;50.794;-1.066;2023-07-02T06:49:14;16.40;99.90
35559;DHT22;21661;50.794;-1.066;2023-07-02T06:51:39;16.50;99.90
35559;DHT22;21661;50.794;-1.066;2023-07-02T06:54:06;16.50;99.90
35559;DHT22;21661;50.794;-1.066;2023-07-02T06:56:32;16.60;99.90
35559;DHT22;21661;50.794;-1.066;2023-07-02T06:58:59;16.70;99.90
35559;DHT22;21661;50.794;-1.066;2023-07-02T07:01:25;16.70;99.90
35559;DHT22;21661;50.794;-1.066;2023-07-02T07:03:51;16.80;99.90
35559;DHT22;21661;50.794;-1.066;2023-07-02T07:06:16;16.80;99.90
35559;DHT22;21661;50.794;-1.066;2023-07-02T07:08:42;16.90;99.90
35559;DHT22;21661;50.794;-1.066;2023-07-02T07:11:08;16.90;99.90
35559;DHT22;21661;50.794;-1.066;2023-07-02T07:13:33;16.90;99.90
35559;DHT22;21661;50.794;-1.066;2023-07-02T07:15:59;17.00;99.90
35559;DHT22;21661;50.794;-1.066;2023-07-02T07:18:24;17.00;99.90
35559;DHT22;21661;50.794;-1.066;2023-07-02T07:20:50;17.00;99.90
35559;DHT22;21661;50.794;-1.066;2023-07-02T07:23:18;17.10;99.90
35559;DHT22;21661;50.794;-1.066;2023-07-02T07:25:44;17.10;99.90
35559;DHT22;21661;50.794;-1.066;2023-07-02T07:28:09;17.20;99.90
35559;DHT22;21661;50.794;-1.066;2023-07-02T07:30:41;17.30;99.90
35559;DHT22;21661;50.794;-1.066;2023-07-02T07:33:07;17.30;99.90
35559;DHT22;21661;50.794;-1.066;2023-07-02T07:35:32;17.20;99.90
35559;DHT22;21661;50.794;-1.066;2023-07-02T07:37:58;17.30;99.90
35559;DHT22;21661;50.794;-1.066;2023-07-02T07:40:23;17.20;99.90
35559;DHT22;21661;50.794;-1.066;2023-07-02T07:42:49;17.20;99.90
35559;DHT22;21661;50.794;-1.066;2023-07-02T07:45:15;17.30;99.90
35559;DHT22;21661;50.794;-1.066;2023-07-02T07:47:41;17.30;99.90
35559;DHT22;21661;50.794;-1.066;2023-07-02T07:50:07;17.40;99.90
35559;DHT22;21661;50.794;-1.066;2023-07-02T07:52:39;17.50;99.90
35559;DHT22;21661;50.794;-1.066;2023-07-02T07:55:06;17.50;99.90
35559;DHT22;21661;50.794;-1.066;2023-07-02T07:57:32;17.60;99.90
35559;DHT22;21661;50.794;-1.066;2023-07-02T07:59:57;17.60;99.90
35559;DHT22;21661;50.794;-1.066;2023-07-02T08:02:23;17.50;99.90
35559;DHT22;21661;50.794;-1.066;2023-07-02T08:04:49;17.60;99.90
35559;DHT22;21661;50.794;-1.066;2023-07-02T08:07:14;17.60;99.90
35559;DHT22;21661;50.794;-1.066;2023-07-02T08:09:40;17.70;99.90
35559;DHT22;21661;50.794;-1.066;2023-07-02T08:12:06;17.80;99.90
35559;DHT22;21661;50.794;-1.066;2023-07-02T08:14:32;17.80;99.90
35559;DHT22;21661;50.794;-1.066;2023-07-02T08:16:58;17.80;99.90
35559;DHT22;21661;50.794;-1.066;2023-07-02T08:19:23;17.80;99.90
35559;DHT22;21661;50.794;-1.066;2023-07-02T08:21:50;17.80;99.90
35559;DHT22;21661;50.794;-1.066;2023-07-02T08:24:15;17.70;99.90
35559;DHT22;21661;50.794;-1.066;2023-07-02T08:26:41;17.60;99.90
35559;DHT22;21661;50.794;-1.066;2023-07-02T08:29:06;17.70;99.90
35559;DHT22;21661;50.794;-1.066;2023-07-02T08:31:32;17.80;99.90
35559;DHT22;21661;50.794;-1.066;2023-07-02T08:33:57;17.80;99.90
35559;DHT22;21661;50.794;-1.066;2023-07-02T08:36:23;18.00;99.90
35559;DHT22;21661;50.794;-1.066;2023-07-02T08:38:49;18.00;99.90
35559;DHT22;21661;50.794;-1.066;2023-07-02T08:41:15;18.00;99.90
35559;DHT22;21661;50.794;-1.066;2023-07-02T08:43:40;18.10;99.90
35559;DHT22;21661;50.794;-1.066;2023-07-02T08:46:07;18.20;99.90
35559;DHT22;21661;50.794;-1.066;2023-07-02T08:48:34;18.40;99.90
35559;DHT22;21661;50.794;-1.066;2023-07-02T08:51:00;18.40;99.90
35559;DHT22;21661;50.794;-1.066;2023-07-02T08:53:25;18.50;99.90
35559;DHT22;21661;50.794;-1.066;2023-07-02T08:55:55;18.50;99.90
35559;DHT22;21661;50.794;-1.066;2023-07-02T08:58:21;18.30;99.90
35559;DHT22;21661;50.794;-1.066;2023-07-02T09:01:07;18.20;99.90
35559;DHT22;21661;50.794;-1.066;2023-07-02T09:03:33;18.30;99.90
35559;DHT22;21661;50.794;-1.066;2023-07-02T09:05:59;18.40;99.90
35559;DHT22;21661;50.794;-1.066;2023-07-02T09:08:28;18.30;99.90
35559;DHT22;21661;50.794;-1.066;2023-07-02T09:11:14;18.50;99.90
35559;DHT22;21661;50.794;-1.066;2023-07-02T09:13:49;18.60;99.90
35559;DHT22;21661;50.794;-1.066;2023-07-02T09:16:41;18.50;99.90
35559;DHT22;21661;50.794;-1.066;2023-07-02T09:19:08;18.50;99.90
35559;DHT22;21661;50.794;-1.066;2023-07-02T09:21:45;18.50;99.90
35559;DHT22;21661;50.794;-1.066;2023-07-02T09:24:15;18.40;99.90
35559;DHT22;21661;50.794;-1.066;2023-07-02T09:26:53;18.50;99.90
35559;DHT22;21661;50.794;-1.066;2023-07-02T09:29:25;18.50;99.90
35559;DHT22;21661;50.794;-1.066;2023-07-02T09:31:54;18.30;99.90
35559;DHT22;21661;50.794;-1.066;2023-07-02T09:34:20;18.20;99.90
35559;DHT22;21661;50.794;-1.066;2023-07-02T09:36:51;18.30;99.90
35559;DHT22;21661;50.794;-1.066;2023-07-02T09:39:24;18.40;99.90
35559;DHT22;21661;50.794;-1.066;2023-07-02T09:41:51;18.50;99.90
35559;DHT22;21661;50.794;-1.066;2023-07-02T09:44:17;18.60;99.90
35559;DHT22;21661;50.794;-1.066;2023-07-02T09:47:07;18.80;99.90
35559;DHT22;21661;50.794;-1.066;2023-07-02T09:49:37;18.90;99.90
35559;DHT22;21661;50.794;-1.066;2023-07-02T09:52:05;18.90;99.90
35559;DHT22;21661;50.794;-1.066;2023-07-02T09:54:31;18.90;99.90
35559;DHT22;21661;50.794;-1.066;2023-07-02T09:56:58;18.90;99.90
35559;DHT22;21661;50.794;-1.066;2023-07-02T09:59:24;18.90;99.90
35559;DHT22;21661;50.794;-1.066;2023-07-02T10:01:50;18.90;99.90
35559;DHT22;21661;50.794;-1.066;2023-07-02T10:04:18;18.80;99.90
35559;DHT22;21661;50.794;-1.066;2023-07-02T10:06:55;18.80;99.90
35559;DHT22;21661;50.794;-1.066;2023-07-02T10:09:34;18.90;99.90
35559;DHT22;21661;50.794;-1.066;2023-07-02T10:12:00;19.20;99.90
35559;DHT22;21661;50.794;-1.066;2023-07-02T10:14:25;19.20;99.90
35559;DHT22;21661;50.794;-1.066;2023-07-02T10:16:54;19.00;99.90
35559;DHT22;21661;50.794;-1.066;2023-07-02T10:19:21;19.00;99.90
35559;DHT22;21661;50.794;-1.066;2023-07-02T10:22:00;19.00;99.90
35559;DHT22;21661;50.794;-1.066;2023-07-02T10:24:25;19.00;99.90
35559;DHT22;21661;50.794;-1.066;2023-07-02T10:26:56;18.90;99.90
35559;DHT22;21661;50.794;-1.066;2023-07-02T10:29:23;18.80;99.90
35559;DHT22;21661;50.794;-1.066;2023-07-02T10:31:52;18.80;99.90
35559;DHT22;21661;50.794;-1.066;2023-07-02T10:34:35;18.90;99.90
35559;DHT22;21661;50.794;-1.066;2023-07-02T10:37:04;18.90;99.90
35559;DHT22;21661;50.794;-1.066;2023-07-02T10:39:31;18.90;99.90
35559;DHT22;21661;50.794;-1.066;2023-07-02T10:42:07;18.90;99.90
35559;DHT22;21661;50.794;-1.066;2023-07-02T10:44:33;18.90;99.90
35559;DHT22;21661;50.794;-1.066;2023-07-02T10:46:59;19.00;99.90
35559;DHT22;21661;50.794;-1.066;2023-07-02T10:49:32;19.10;99.90
35559;DHT22;21661;50.794;-1.066;2023-07-02T10:51:59;19.10;99.90
35559;DHT22;21661;50.794;-1.066;2023-07-02T10:54:25;19.10;99.90
35559;DHT22;21661;50.794;-1.066;2023-07-02T10:56:57;19.40;99.90
35559;DHT22;21661;50.794;-1.066;2023-07-02T10:59:25;19.60;99.90
35559;DHT22;21661;50.794;-1.066;2023-07-02T11:01:51;19.80;99.90
35559;DHT22;21661;50.794;-1.066;2023-07-02T11:04:17;19.90;99.90
35559;DHT22;21661;50.794;-1.066;2023-07-02T11:06:43;19.80;99.90
35559;DHT22;21661;50.794;-1.066;2023-07-02T11:09:18;19.60;99.90
35559;DHT22;21661;50.794;-1.066;2023-07-02T11:11:52;19.60;99.90
35559;DHT22;21661;50.794;-1.066;2023-07-02T11:14:35;19.50;99.90
35559;DHT22;21661;50.794;-1.066;2023-07-02T11:17:06;19.60;99.90
35559;DHT22;21661;50.794;-1.066;2023-07-02T11:19:35;19.70;99.90
35559;DHT22;21661;50.794;-1.066;2023-07-02T11:22:01;19.70;99.90
35559;DHT22;21661;50.794;-1.066;2023-07-02T11:24:30;19.60;99.90
35559;DHT22;21661;50.794;-1.066;2023-07-02T11:26:56;19.70;99.90
35559;DHT22;21661;50.794;-1.066;2023-07-02T11:29:22;20.00;99.90
35559;DHT22;21661;50.794;-1.066;2023-07-02T11:31:47;20.30;99.90
35559;DHT22;21661;50.794;-1.066;2023-07-02T11:34:14;20.60;99.90
35559;DHT22;21661;50.794;-1.066;2023-07-02T11:36:40;20.50;99.90
35559;DHT22;21661;50.794;-1.066;2023-07-02T11:39:06;20.20;99.90
35559;DHT22;21661;50.794;-1.066;2023-07-02T11:41:39;20.10;99.90
35559;DHT22;21661;50.794;-1.066;2023-07-02T11:44:05;20.00;99.90
35559;DHT22;21661;50.794;-1.066;2023-07-02T11:46:31;19.70;99.90
35559;DHT22;21661;50.794;-1.066;2023-07-02T11:48:57;19.80;99.90
35559;DHT22;21661;50.794;-1.066;2023-07-02T11:51:22;19.80;99.90
35559;DHT22;21661;50.794;-1.066;2023-07-02T11:53:48;19.90;99.90
35559;DHT22;21661;50.794;-1.066;2023-07-02T11:56:13;19.90;99.90
35559;DHT22;21661;50.794;-1.066;2023-07-02T11:58:40;19.80;99.90
35559;DHT22;21661;50.794;-1.066;2023-07-02T12:01:06;19.70;99.90
35559;DHT22;21661;50.794;-1.066;2023-07-02T12:03:31;19.70;99.90
35559;DHT22;21661;50.794;-1.066;2023-07-02T12:05:57;19.60;99.90
35559;DHT22;21661;50.794;-1.066;2023-07-02T12:08:22;19.60;99.90
35559;DHT22;21661;50.794;-1.066;2023-07-02T12:10:48;19.70;99.90
35559;DHT22;21661;50.794;-1.066;2023-07-02T12:13:14;19.80;99.90
35559;DHT22;21661;50.794;-1.066;2023-07-02T12:15:39;19.90;99.90
35559;DHT22;21661;50.794;-1.066;2023-07-02T12:18:05;20.00;99.90
35559;DHT22;21661;50.794;-1.066;2023-07-02T12:20:31;20.10;99.90
35559;DHT22;21661;50.794;-1.066;2023-07-02T12:22:57;20.30;99.90
35559;DHT22;21661;50.794;-1.066;2023-07-02T12:25:23;20.70;99.90
35559;DHT22;21661;50.794;-1.066;2023-07-02T12:27:48;20.80;99.90
35559;DHT22;21661;50.794;-1.066;2023-07-02T12:30:14;20.80;99.90
35559;DHT22;21661;50.794;-1.066;2023-07-02T12:32:44;20.80;99.90
35559;DHT22;21661;50.794;-1.066;2023-07-02T12:35:10;20.80;99.90
35559;DHT22;21661;50.794;-1.066;2023-07-02T12:37:43;20.80;99.90
35559;DHT22;21661;50.794;-1.066;2023-07-02T12:40:09;20.70;99.90
35559;DHT22;21661;50.794;-1.066;2023-07-02T12:42:35;20.70;99.90
35559;DHT22;21661;50.794;-1.066;2023-07-02T12:45:01;20.80;99.90
35559;DHT22;21661;50.794;-1.066;2023-07-02T12:47:27;20.70;99.90
35559;DHT22;21661;50.794;-1.066;2023-07-02T12:49:52;20.40;99.90
35559;DHT22;21661;50.794;-1.066;2023-07-02T12:52:18;20.60;99.90
35559;DHT22;21661;50.794;-1.066;2023-07-02T12:54:43;20.60;99.90
35559;DHT22;21661;50.794;-1.066;2023-07-02T12:57:09;20.60;99.90
35559;DHT22;21661;50.794;-1.066;2023-07-02T12:59:35;20.50;99.90
35559;DHT22;21661;50.794;-1.066;2023-07-02T13:02:01;20.70;99.90
35559;DHT22;21661;50.794;-1.066;2023-07-02T13:04:26;20.80;99.90
35559;DHT22;21661;50.794;-1.066;2023-07-02T13:06:52;21.00;99.90
35559;DHT22;21661;50.794;-1.066;2023-07-02T13:09:17;21.20;99.90
35559;DHT22;21661;50.794;-1.066;2023-07-02T13:11:43;21.10;99.90
35559;DHT22;21661;50.794;-1.066;2023-07-02T13:14:08;21.20;99.90
35559;DHT22;21661;50.794;-1.066;2023-07-02T13:16:34;21.30;99.90
35559;DHT22;21661;50.794;-1.066;2023-07-02T13:19:00;21.30;99.90
35559;DHT22;21661;50.794;-1.066;2023-07-02T13:21:27;21.30;99.90
35559;DHT22;21661;50.794;-1.066;2023-07-02T13:23:52;21.10;99.90
35559;DHT22;21661;50.794;-1.066;2023-07-02T13:26:18;21.10;99.90
35559;DHT22;21661;50.794;-1.066;2023-07-02T13:28:43;20.80;99.90
35559;DHT22;21661;50.794;-1.066;2023-07-02T13:31:12;20.80;99.90
35559;DHT22;21661;50.794;-1.066;2023-07-02T13:33:37;20.80;99.90
35559;DHT22;21661;50.794;-1.066;2023-07-02T13:36:04;20.90;99.90
35559;DHT22;21661;50.794;-1.066;2023-07-02T13:38:31;21.00;99.90
35559;DHT22;21661;50.794;-1.066;2023-07-02T13:40:57;21.10;99.90
35559;DHT22;21661;50.794;-1.066;2023-07-02T13:43:22;21.10;99.90
35559;DHT22;21661;50.794;-1.066;2023-07-02T13:45:48;21.20;99.90
35559;DHT22;21661;50.794;-1.066;2023-07-02T13:48:14;21.20;99.90
35559;DHT22;21661;50.794;-1.066;2023-07-02T13:50:40;21.10;99.90
35559;DHT22;21661;50.794;-1.066;2023-07-02T13:53:05;20.80;99.90
35559;DHT22;21661;50.794;-1.066;2023-07-02T13:55:31;20.90;99.90
35559;DHT22;21661;50.794;-1.066;2023-07-02T13:57:57;21.20;99.90
35559;DHT22;21661;50.794;-1.066;2023-07-02T14:00:23;21.40;99.90
35559;DHT22;21661;50.794;-1.066;2023-07-02T14:02:49;21.60;99.90
35559;DHT22;21661;50.794;-1.066;2023-07-02T14:05:15;21.70;99.90
35559;DHT22;21661;50.794;-1.066;2023-07-02T14:07:40;21.70;99.90
35559;DHT22;21661;50.794;-1.066;2023-07-02T14:10:06;21.80;99.90
35559;DHT22;21661;50.794;-1.066;2023-07-02T14:12:32;21.60;99.90
35559;DHT22;21661;50.794;-1.066;2023-07-02T14:14:58;21.60;99.90
35559;DHT22;21661;50.794;-1.066;2023-07-02T14:17:23;21.40;99.90
35559;DHT22;21661;50.794;-1.066;2023-07-02T14:19:49;21.40;99.90
35559;DHT22;21661;50.794;-1.066;2023-07-02T14:22:15;21.20;99.90
35559;DHT22;21661;50.794;-1.066;2023-07-02T14:24:40;21.30;99.90
35559;DHT22;21661;50.794;-1.066;2023-07-02T14:27:06;21.40;99.90
35559;DHT22;21661;50.794;-1.066;2023-07-02T14:29:32;21.40;99.90
35559;DHT22;21661;50.794;-1.066;2023-07-02T14:31:57;21.40;99.90
35559;DHT22;21661;50.794;-1.066;2023-07-02T14:34:23;21.20;99.90
35559;DHT22;21661;50.794;-1.066;2023-07-02T14:36:49;21.10;99.90
35559;DHT22;21661;50.794;-1.066;2023-07-02T14:39:14;21.20;99.90
35559;DHT22;21661;50.794;-1.066;2023-07-02T14:41:40;21.10;99.90
35559;DHT22;21661;50.794;-1.066;2023-07-02T14:44:06;21.10;99.90
35559;DHT22;21661;50.794;-1.066;2023-07-02T14:46:32;21.20;99.90
35559;DHT22;21661;50.794;-1.066;2023-07-02T14:48:58;21.20;99.90
35559;DHT22;21661;50.794;-1.066;2023-07-02T14:51:23;21.40;99.90
35559;DHT22;21661;50.794;-1.066;2023-07-02T14:53:50;21.50;99.90
35559;DHT22;21661;50.794;-1.066;2023-07-02T14:56:16;21.30;99.90
35559;DHT22;21661;50.794;-1.066;2023-07-02T14:58:43;21.30;99.90
35559;DHT22;21661;50.794;-1.066;2023-07-02T15:01:09;21.30;99.90
35559;DHT22;21661;50.794;-1.066;2023-07-02T15:03:34;21.30;99.90
35559;DHT22;21661;50.794;-1.066;2023-07-02T15:06:26;21.30;99.90
35559;DHT22;21661;50.794;-1.066;2023-07-02T15:08:52;21.20;99.90
35559;DHT22;21661;50.794;-1.066;2023-07-02T15:11:18;21.00;99.90
35559;DHT22;21661;50.794;-1.066;2023-07-02T15:13:44;21.00;99.90